<?xml version="1.0" encoding="UTF-8" standalone="no" ?>
<gpx xmlns="http://www.topografix.com/GPX/1/1" xmlns:xsi="http://www.w3.org/2001/XMLSchema-instance" xsi:schemaLocation="http://www.topografix.com/GPX/1/1 http://www.topografix.com/GPX/1/1/gpx.xsd" version="1.1" creator="VisuGPX - https://www.visugpx.com">
  <metadata>
    <name>Rando LN</name>
  </metadata>
  <trk>
    <name><![CDATA[VALLON-PONT-D'ARC]]></name>
    <extensions>
      <line xmlns="http://www.topografix.com/GPX/gpx_style/0/2">
        <color>0000FF</color>
        <width>4</width>
      </line>
    </extensions>
    <trkseg>
      <trkpt lat="44.39689" lon="4.23099">
        <ele>143.1</ele>
      </trkpt>
      <trkpt lat="44.39682" lon="4.23149">
        <ele>142</ele>
      </trkpt>
      <trkpt lat="44.396" lon="4.23139">
        <ele>137.8</ele>
      </trkpt>
      <trkpt lat="44.39527" lon="4.23177">
        <ele>133.3</ele>
      </trkpt>
      <trkpt lat="44.39238" lon="4.23435">
        <ele>112.5</ele>
      </trkpt>
      <trkpt lat="44.39003" lon="4.23384">
        <ele>117.256</ele>
        <time>2015-07-28T21:18:06Z</time>
      </trkpt>
      <trkpt lat="44.38984" lon="4.23517">
        <ele>118.029</ele>
        <time>2015-07-28T21:18:26Z</time>
      </trkpt>
      <trkpt lat="44.39013" lon="4.23528">
        <ele>118.084</ele>
        <time>2015-07-28T21:18:46Z</time>
      </trkpt>
      <trkpt lat="44.39042" lon="4.2352">
        <ele>118.022</ele>
        <time>2015-07-28T21:19:06Z</time>
      </trkpt>
      <trkpt lat="44.39056" lon="4.23545">
        <ele>118.062</ele>
        <time>2015-07-28T21:19:26Z</time>
      </trkpt>
      <trkpt lat="44.39021" lon="4.23593">
        <ele>118.508</ele>
        <time>2015-07-28T21:19:46Z</time>
      </trkpt>
      <trkpt lat="44.38968" lon="4.23628">
        <ele>119.408</ele>
        <time>2015-07-28T21:20:06Z</time>
      </trkpt>
      <trkpt lat="44.38899" lon="4.23725">
        <ele>116.248</ele>
        <time>2015-07-28T21:20:26Z</time>
      </trkpt>
      <trkpt lat="44.38847" lon="4.23763">
        <ele>114.032</ele>
        <time>2015-07-28T21:20:46Z</time>
      </trkpt>
      <trkpt lat="44.38823" lon="4.23797">
        <ele>114.429</ele>
        <time>2015-07-28T21:21:06Z</time>
      </trkpt>
      <trkpt lat="44.388" lon="4.23846">
        <ele>114.497</ele>
        <time>2015-07-28T21:21:26Z</time>
      </trkpt>
      <trkpt lat="44.38777" lon="4.23877">
        <ele>113.459</ele>
        <time>2015-07-28T21:21:46Z</time>
      </trkpt>
      <trkpt lat="44.3876" lon="4.23942">
        <ele>113.624</ele>
        <time>2015-07-28T21:22:06Z</time>
      </trkpt>
      <trkpt lat="44.38712" lon="4.23917">
        <ele>114.437</ele>
        <time>2015-07-28T21:22:26Z</time>
      </trkpt>
      <trkpt lat="44.38609" lon="4.24048">
        <ele>113.062</ele>
        <time>2015-07-28T21:22:46Z</time>
      </trkpt>
      <trkpt lat="44.38711" lon="4.24211">
        <ele>113.631</ele>
        <time>2015-07-28T21:23:06Z</time>
      </trkpt>
      <trkpt lat="44.38781" lon="4.24314">
        <ele>111.061</ele>
        <time>2015-07-28T21:23:26Z</time>
      </trkpt>
      <trkpt lat="44.38835" lon="4.24448">
        <ele>113.007</ele>
        <time>2015-07-28T21:23:46Z</time>
      </trkpt>
      <trkpt lat="44.38864" lon="4.24583">
        <ele>111.108</ele>
        <time>2015-07-28T21:24:06Z</time>
      </trkpt>
      <trkpt lat="44.38885" lon="4.24715">
        <ele>112.199</ele>
        <time>2015-07-28T21:24:26Z</time>
      </trkpt>
      <trkpt lat="44.38886" lon="4.24779">
        <ele>111.293</ele>
        <time>2015-07-28T21:24:46Z</time>
      </trkpt>
      <trkpt lat="44.3892" lon="4.25064">
        <ele>113.53</ele>
        <time>2015-07-28T21:25:06Z</time>
      </trkpt>
      <trkpt lat="44.38955" lon="4.25274">
        <ele>111.198</ele>
        <time>2015-07-28T21:25:26Z</time>
      </trkpt>
      <trkpt lat="44.38973" lon="4.25486">
        <ele>111.05</ele>
        <time>2015-07-28T21:25:46Z</time>
      </trkpt>
      <trkpt lat="44.38962" lon="4.2556">
        <ele>113.455</ele>
        <time>2015-07-28T21:26:06Z</time>
      </trkpt>
      <trkpt lat="44.38968" lon="4.25587">
        <ele>114.328</ele>
        <time>2015-07-28T21:26:26Z</time>
      </trkpt>
      <trkpt lat="44.38941" lon="4.25605">
        <ele>117.183</ele>
        <time>2015-07-28T21:26:46Z</time>
      </trkpt>
      <trkpt lat="44.38931" lon="4.25629">
        <ele>117.326</ele>
        <time>2015-07-28T21:27:06Z</time>
      </trkpt>
      <trkpt lat="44.38961" lon="4.2569">
        <ele>114.647</ele>
        <time>2015-07-28T21:27:26Z</time>
      </trkpt>
      <trkpt lat="44.38973" lon="4.25748">
        <ele>115.011</ele>
        <time>2015-07-28T21:27:46Z</time>
      </trkpt>
      <trkpt lat="44.38977" lon="4.25853">
        <ele>115.008</ele>
        <time>2015-07-28T21:28:06Z</time>
      </trkpt>
      <trkpt lat="44.38963" lon="4.25964">
        <ele>118.278</ele>
        <time>2015-07-28T21:28:26Z</time>
      </trkpt>
      <trkpt lat="44.38965" lon="4.26094">
        <ele>125.892</ele>
        <time>2015-07-28T21:28:46Z</time>
      </trkpt>
      <trkpt lat="44.38937" lon="4.26212">
        <ele>135.059</ele>
        <time>2015-07-28T21:29:06Z</time>
      </trkpt>
      <trkpt lat="44.38965" lon="4.26207">
        <ele>138.787</ele>
        <time>2015-07-28T21:29:26Z</time>
      </trkpt>
      <trkpt lat="44.38969" lon="4.26231">
        <ele>140.869</ele>
        <time>2015-07-28T21:29:46Z</time>
      </trkpt>
      <trkpt lat="44.38981" lon="4.26245">
        <ele>142.234</ele>
        <time>2015-07-28T21:30:06Z</time>
      </trkpt>
      <trkpt lat="44.38987" lon="4.26282">
        <ele>142.537</ele>
        <time>2015-07-28T21:30:26Z</time>
      </trkpt>
      <trkpt lat="44.39005" lon="4.26287">
        <ele>142.882</ele>
        <time>2015-07-28T21:30:46Z</time>
      </trkpt>
      <trkpt lat="44.39019" lon="4.26308">
        <ele>142.311</ele>
        <time>2015-07-28T21:31:06Z</time>
      </trkpt>
      <trkpt lat="44.39021" lon="4.26388">
        <ele>142.021</ele>
        <time>2015-07-28T21:31:26Z</time>
      </trkpt>
      <trkpt lat="44.39001" lon="4.26466">
        <ele>139.003</ele>
        <time>2015-07-28T21:31:46Z</time>
      </trkpt>
      <trkpt lat="44.38927" lon="4.26695">
        <ele>138.008</ele>
        <time>2015-07-28T21:32:06Z</time>
      </trkpt>
      <trkpt lat="44.38906" lon="4.26698">
        <ele>137.627</ele>
        <time>2015-07-28T21:32:26Z</time>
      </trkpt>
      <trkpt lat="44.38889" lon="4.26737">
        <ele>136.561</ele>
        <time>2015-07-28T21:32:46Z</time>
      </trkpt>
      <trkpt lat="44.38824" lon="4.27028">
        <ele>142.028</ele>
        <time>2015-07-28T21:33:06Z</time>
      </trkpt>
      <trkpt lat="44.38749" lon="4.27093">
        <ele>145.446</ele>
        <time>2015-07-28T21:33:26Z</time>
      </trkpt>
      <trkpt lat="44.38722" lon="4.27154">
        <ele>148.538</ele>
        <time>2015-07-28T21:33:46Z</time>
      </trkpt>
      <trkpt lat="44.38704" lon="4.27274">
        <ele>149.563</ele>
        <time>2015-07-28T21:34:06Z</time>
      </trkpt>
      <trkpt lat="44.38687" lon="4.27348">
        <ele>154.596</ele>
        <time>2015-07-28T21:34:26Z</time>
      </trkpt>
      <trkpt lat="44.38638" lon="4.27416">
        <ele>153.941</ele>
        <time>2015-07-28T21:34:46Z</time>
      </trkpt>
      <trkpt lat="44.38589" lon="4.27497">
        <ele>156.156</ele>
        <time>2015-07-28T21:35:06Z</time>
      </trkpt>
      <trkpt lat="44.38594" lon="4.27535">
        <ele>158.459</ele>
        <time>2015-07-28T21:35:26Z</time>
      </trkpt>
      <trkpt lat="44.38567" lon="4.27604">
        <ele>162.014</ele>
        <time>2015-07-28T21:35:46Z</time>
      </trkpt>
      <trkpt lat="44.38516" lon="4.27672">
        <ele>162.208</ele>
        <time>2015-07-28T21:36:06Z</time>
      </trkpt>
      <trkpt lat="44.38474" lon="4.27716">
        <ele>166.611</ele>
        <time>2015-07-28T21:36:26Z</time>
      </trkpt>
      <trkpt lat="44.38439" lon="4.27773">
        <ele>169.485</ele>
        <time>2015-07-28T21:36:46Z</time>
      </trkpt>
      <trkpt lat="44.38416" lon="4.27854">
        <ele>171.032</ele>
        <time>2015-07-28T21:37:06Z</time>
      </trkpt>
      <trkpt lat="44.38391" lon="4.27901">
        <ele>175.37</ele>
        <time>2015-07-28T21:37:26Z</time>
      </trkpt>
      <trkpt lat="44.38379" lon="4.27942">
        <ele>178.522</ele>
        <time>2015-07-28T21:37:46Z</time>
      </trkpt>
      <trkpt lat="44.38434" lon="4.28009">
        <ele>175.497</ele>
        <time>2015-07-28T21:38:06Z</time>
      </trkpt>
      <trkpt lat="44.38527" lon="4.28053">
        <ele>173.46</ele>
        <time>2015-07-28T21:38:26Z</time>
      </trkpt>
      <trkpt lat="44.38573" lon="4.28091">
        <ele>165.735</ele>
        <time>2015-07-28T21:38:46Z</time>
      </trkpt>
      <trkpt lat="44.38682" lon="4.28123">
        <ele>152.334</ele>
        <time>2015-07-28T21:39:06Z</time>
      </trkpt>
      <trkpt lat="44.38709" lon="4.281">
        <ele>149.155</ele>
        <time>2015-07-28T21:39:26Z</time>
      </trkpt>
      <trkpt lat="44.38739" lon="4.28056">
        <ele>144.91</ele>
        <time>2015-07-28T21:39:46Z</time>
      </trkpt>
      <trkpt lat="44.38778" lon="4.28075">
        <ele>141.708</ele>
        <time>2015-07-28T21:40:06Z</time>
      </trkpt>
      <trkpt lat="44.38788" lon="4.28114">
        <ele>142.419</ele>
        <time>2015-07-28T21:40:26Z</time>
      </trkpt>
      <trkpt lat="44.38803" lon="4.28132">
        <ele>143.083</ele>
        <time>2015-07-28T21:40:46Z</time>
      </trkpt>
      <trkpt lat="44.38841" lon="4.28146">
        <ele>145.79</ele>
        <time>2015-07-28T21:41:06Z</time>
      </trkpt>
      <trkpt lat="44.38878" lon="4.28145">
        <ele>147.758</ele>
        <time>2015-07-28T21:41:26Z</time>
      </trkpt>
      <trkpt lat="44.38904" lon="4.28166">
        <ele>150.13</ele>
        <time>2015-07-28T21:41:46Z</time>
      </trkpt>
      <trkpt lat="44.38886" lon="4.28178">
        <ele>149.295</ele>
        <time>2015-07-28T21:42:06Z</time>
      </trkpt>
      <trkpt lat="44.38845" lon="4.28269">
        <ele>147.128</ele>
        <time>2015-07-28T21:42:26Z</time>
      </trkpt>
      <trkpt lat="44.38841" lon="4.28311">
        <ele>146.893</ele>
        <time>2015-07-28T21:42:46Z</time>
      </trkpt>
      <trkpt lat="44.3881" lon="4.28369">
        <ele>153.686</ele>
        <time>2015-07-28T21:43:06Z</time>
      </trkpt>
      <trkpt lat="44.3875" lon="4.28422">
        <ele>157.46</ele>
        <time>2015-07-28T21:43:26Z</time>
      </trkpt>
      <trkpt lat="44.38709" lon="4.28482">
        <ele>161.526</ele>
        <time>2015-07-28T21:43:46Z</time>
      </trkpt>
      <trkpt lat="44.38671" lon="4.28511">
        <ele>158.608</ele>
        <time>2015-07-28T21:44:06Z</time>
      </trkpt>
      <trkpt lat="44.38644" lon="4.2854">
        <ele>156.944</ele>
        <time>2015-07-28T21:44:26Z</time>
      </trkpt>
      <trkpt lat="44.38653" lon="4.28565">
        <ele>160.378</ele>
        <time>2015-07-28T21:44:46Z</time>
      </trkpt>
      <trkpt lat="44.3868" lon="4.28546">
        <ele>164.185</ele>
        <time>2015-07-28T21:45:06Z</time>
      </trkpt>
      <trkpt lat="44.38703" lon="4.28543">
        <ele>169.443</ele>
        <time>2015-07-28T21:45:26Z</time>
      </trkpt>
      <trkpt lat="44.38735" lon="4.28531">
        <ele>175.635</ele>
        <time>2015-07-28T21:45:46Z</time>
      </trkpt>
      <trkpt lat="44.38763" lon="4.28534">
        <ele>179.63</ele>
        <time>2015-07-28T21:46:06Z</time>
      </trkpt>
      <trkpt lat="44.38784" lon="4.28544">
        <ele>181.743</ele>
        <time>2015-07-28T21:46:26Z</time>
      </trkpt>
      <trkpt lat="44.38831" lon="4.28641">
        <ele>192.838</ele>
        <time>2015-07-28T21:46:46Z</time>
      </trkpt>
      <trkpt lat="44.38842" lon="4.28656">
        <ele>192.556</ele>
        <time>2015-07-28T21:47:06Z</time>
      </trkpt>
      <trkpt lat="44.38877" lon="4.28749">
        <ele>196.359</ele>
        <time>2015-07-28T21:47:26Z</time>
      </trkpt>
      <trkpt lat="44.38867" lon="4.28795">
        <ele>196.814</ele>
        <time>2015-07-28T21:47:46Z</time>
      </trkpt>
      <trkpt lat="44.3885" lon="4.28824">
        <ele>196.808</ele>
        <time>2015-07-28T21:48:06Z</time>
      </trkpt>
      <trkpt lat="44.38818" lon="4.28853">
        <ele>200.611</ele>
        <time>2015-07-28T21:48:26Z</time>
      </trkpt>
      <trkpt lat="44.38781" lon="4.28854">
        <ele>205.625</ele>
        <time>2015-07-28T21:48:46Z</time>
      </trkpt>
      <trkpt lat="44.38716" lon="4.28831">
        <ele>211.292</ele>
        <time>2015-07-28T21:49:06Z</time>
      </trkpt>
      <trkpt lat="44.38651" lon="4.28854">
        <ele>219.97</ele>
        <time>2015-07-28T21:49:26Z</time>
      </trkpt>
      <trkpt lat="44.38652" lon="4.28864">
        <ele>223.612</ele>
        <time>2015-07-28T21:49:46Z</time>
      </trkpt>
      <trkpt lat="44.38691" lon="4.28873">
        <ele>224.947</ele>
        <time>2015-07-28T21:50:06Z</time>
      </trkpt>
      <trkpt lat="44.38714" lon="4.28909">
        <ele>229.41</ele>
        <time>2015-07-28T21:50:26Z</time>
      </trkpt>
      <trkpt lat="44.3871" lon="4.28944">
        <ele>236.165</ele>
        <time>2015-07-28T21:50:46Z</time>
      </trkpt>
      <trkpt lat="44.38693" lon="4.28991">
        <ele>246.779</ele>
        <time>2015-07-28T21:51:06Z</time>
      </trkpt>
      <trkpt lat="44.38664" lon="4.2903">
        <ele>254.105</ele>
        <time>2015-07-28T21:51:26Z</time>
      </trkpt>
      <trkpt lat="44.386" lon="4.29085">
        <ele>263.625</ele>
        <time>2015-07-28T21:51:46Z</time>
      </trkpt>
      <trkpt lat="44.38541" lon="4.29106">
        <ele>274.808</ele>
        <time>2015-07-28T21:52:06Z</time>
      </trkpt>
      <trkpt lat="44.38523" lon="4.29136">
        <ele>280.323</ele>
        <time>2015-07-28T21:52:26Z</time>
      </trkpt>
      <trkpt lat="44.38527" lon="4.29189">
        <ele>284.937</ele>
        <time>2015-07-28T21:52:46Z</time>
      </trkpt>
      <trkpt lat="44.38514" lon="4.2926">
        <ele>288.734</ele>
        <time>2015-07-28T21:53:06Z</time>
      </trkpt>
      <trkpt lat="44.38446" lon="4.29413">
        <ele>308.652</ele>
        <time>2015-07-28T21:53:26Z</time>
      </trkpt>
      <trkpt lat="44.38348" lon="4.29508">
        <ele>311.144</ele>
        <time>2015-07-28T21:53:46Z</time>
      </trkpt>
      <trkpt lat="44.38271" lon="4.29559">
        <ele>315.719</ele>
        <time>2015-07-28T21:54:06Z</time>
      </trkpt>
      <trkpt lat="44.38234" lon="4.29675">
        <ele>317.212</ele>
        <time>2015-07-28T21:54:26Z</time>
      </trkpt>
      <trkpt lat="44.3823" lon="4.29744">
        <ele>320.057</ele>
        <time>2015-07-28T21:54:46Z</time>
      </trkpt>
      <trkpt lat="44.38258" lon="4.29797">
        <ele>323.454</ele>
        <time>2015-07-28T21:55:06Z</time>
      </trkpt>
      <trkpt lat="44.38298" lon="4.2981">
        <ele>322.756</ele>
        <time>2015-07-28T21:55:26Z</time>
      </trkpt>
      <trkpt lat="44.38365" lon="4.29922">
        <ele>325.811</ele>
        <time>2015-07-28T21:55:46Z</time>
      </trkpt>
      <trkpt lat="44.38385" lon="4.29977">
        <ele>326.108</ele>
        <time>2015-07-28T21:56:06Z</time>
      </trkpt>
      <trkpt lat="44.38442" lon="4.30101">
        <ele>329.471</ele>
        <time>2015-07-28T21:56:26Z</time>
      </trkpt>
      <trkpt lat="44.38479" lon="4.30162">
        <ele>328.615</ele>
        <time>2015-07-28T21:56:46Z</time>
      </trkpt>
      <trkpt lat="44.38539" lon="4.30321">
        <ele>334.812</ele>
        <time>2015-07-28T21:57:06Z</time>
      </trkpt>
      <trkpt lat="44.38543" lon="4.30396">
        <ele>338.02</ele>
        <time>2015-07-28T21:57:26Z</time>
      </trkpt>
      <trkpt lat="44.38538" lon="4.30444">
        <ele>337.422</ele>
        <time>2015-07-28T21:57:46Z</time>
      </trkpt>
      <trkpt lat="44.3855" lon="4.3055">
        <ele>337.917</ele>
        <time>2015-07-28T21:58:06Z</time>
      </trkpt>
      <trkpt lat="44.3856" lon="4.30591">
        <ele>341.19</ele>
        <time>2015-07-28T21:58:26Z</time>
      </trkpt>
      <trkpt lat="44.38576" lon="4.30689">
        <ele>345.235</ele>
        <time>2015-07-28T21:58:46Z</time>
      </trkpt>
      <trkpt lat="44.38568" lon="4.30725">
        <ele>348.482</ele>
        <time>2015-07-28T21:59:06Z</time>
      </trkpt>
      <trkpt lat="44.38575" lon="4.30766">
        <ele>349.843</ele>
        <time>2015-07-28T21:59:26Z</time>
      </trkpt>
      <trkpt lat="44.38606" lon="4.30868">
        <ele>353.017</ele>
        <time>2015-07-28T21:59:46Z</time>
      </trkpt>
      <trkpt lat="44.3859" lon="4.3094">
        <ele>362.308</ele>
        <time>2015-07-28T22:00:06Z</time>
      </trkpt>
      <trkpt lat="44.38642" lon="4.30954">
        <ele>360.914</ele>
        <time>2015-07-28T22:00:26Z</time>
      </trkpt>
      <trkpt lat="44.38675" lon="4.31001">
        <ele>361.988</ele>
        <time>2015-07-28T22:00:46Z</time>
      </trkpt>
      <trkpt lat="44.38665" lon="4.31049">
        <ele>364.975</ele>
        <time>2015-07-28T22:01:06Z</time>
      </trkpt>
      <trkpt lat="44.38709" lon="4.31098">
        <ele>362.313</ele>
        <time>2015-07-28T22:01:26Z</time>
      </trkpt>
      <trkpt lat="44.3874" lon="4.31163">
        <ele>364.485</ele>
        <time>2015-07-28T22:01:46Z</time>
      </trkpt>
      <trkpt lat="44.38844" lon="4.31289">
        <ele>365.46</ele>
        <time>2015-07-28T22:02:06Z</time>
      </trkpt>
      <trkpt lat="44.38849" lon="4.31238">
        <ele>359.893</ele>
        <time>2015-07-28T22:02:26Z</time>
      </trkpt>
      <trkpt lat="44.38873" lon="4.31202">
        <ele>357.618</ele>
        <time>2015-07-28T22:02:46Z</time>
      </trkpt>
      <trkpt lat="44.3894" lon="4.3122">
        <ele>359.097</ele>
        <time>2015-07-28T22:03:06Z</time>
      </trkpt>
      <trkpt lat="44.39035" lon="4.31274">
        <ele>358.123</ele>
        <time>2015-07-28T22:03:26Z</time>
      </trkpt>
      <trkpt lat="44.39075" lon="4.31278">
        <ele>357.025</ele>
        <time>2015-07-28T22:03:46Z</time>
      </trkpt>
      <trkpt lat="44.39122" lon="4.31301">
        <ele>358.608</ele>
        <time>2015-07-28T22:04:06Z</time>
      </trkpt>
      <trkpt lat="44.39185" lon="4.31295">
        <ele>358.115</ele>
        <time>2015-07-28T22:04:26Z</time>
      </trkpt>
      <trkpt lat="44.39225" lon="4.313">
        <ele>356.339</ele>
        <time>2015-07-28T22:04:46Z</time>
      </trkpt>
      <trkpt lat="44.39277" lon="4.31287">
        <ele>354.796</ele>
        <time>2015-07-28T22:05:06Z</time>
      </trkpt>
      <trkpt lat="44.39325" lon="4.31284">
        <ele>354.814</ele>
        <time>2015-07-28T22:05:26Z</time>
      </trkpt>
      <trkpt lat="44.39424" lon="4.31323">
        <ele>348.316</ele>
        <time>2015-07-28T22:05:46Z</time>
      </trkpt>
      <trkpt lat="44.39466" lon="4.31334">
        <ele>347.251</ele>
        <time>2015-07-28T22:06:06Z</time>
      </trkpt>
      <trkpt lat="44.39492" lon="4.31353">
        <ele>347.064</ele>
        <time>2015-07-28T22:06:26Z</time>
      </trkpt>
      <trkpt lat="44.3956" lon="4.31348">
        <ele>344.369</ele>
        <time>2015-07-28T22:06:46Z</time>
      </trkpt>
      <trkpt lat="44.39617" lon="4.31344">
        <ele>341.286</ele>
        <time>2015-07-28T22:07:06Z</time>
      </trkpt>
      <trkpt lat="44.39657" lon="4.31348">
        <ele>340.26</ele>
        <time>2015-07-28T22:07:26Z</time>
      </trkpt>
      <trkpt lat="44.3965" lon="4.31423">
        <ele>338.226</ele>
        <time>2015-07-28T22:07:46Z</time>
      </trkpt>
      <trkpt lat="44.39663" lon="4.31449">
        <ele>336.008</ele>
        <time>2015-07-28T22:08:06Z</time>
      </trkpt>
      <trkpt lat="44.39673" lon="4.315">
        <ele>334.064</ele>
        <time>2015-07-28T22:08:26Z</time>
      </trkpt>
      <trkpt lat="44.39685" lon="4.31529">
        <ele>334.088</ele>
        <time>2015-07-28T22:08:46Z</time>
      </trkpt>
      <trkpt lat="44.39695" lon="4.31595">
        <ele>333.535</ele>
        <time>2015-07-28T22:09:06Z</time>
      </trkpt>
      <trkpt lat="44.39709" lon="4.31618">
        <ele>332.253</ele>
        <time>2015-07-28T22:09:26Z</time>
      </trkpt>
      <trkpt lat="44.39752" lon="4.3164">
        <ele>328.915</ele>
        <time>2015-07-28T22:09:46Z</time>
      </trkpt>
      <trkpt lat="44.39769" lon="4.31656">
        <ele>327.37</ele>
        <time>2015-07-28T22:10:06Z</time>
      </trkpt>
      <trkpt lat="44.39796" lon="4.31669">
        <ele>325.323</ele>
        <time>2015-07-28T22:10:26Z</time>
      </trkpt>
      <trkpt lat="44.39824" lon="4.31673">
        <ele>325.468</ele>
        <time>2015-07-28T22:10:46Z</time>
      </trkpt>
      <trkpt lat="44.39876" lon="4.31753">
        <ele>324.964</ele>
        <time>2015-07-28T22:11:06Z</time>
      </trkpt>
      <trkpt lat="44.3989" lon="4.318">
        <ele>321.506</ele>
        <time>2015-07-28T22:11:26Z</time>
      </trkpt>
      <trkpt lat="44.39913" lon="4.31856">
        <ele>321.216</ele>
        <time>2015-07-28T22:11:46Z</time>
      </trkpt>
      <trkpt lat="44.399" lon="4.31932">
        <ele>320.908</ele>
        <time>2015-07-28T22:12:06Z</time>
      </trkpt>
      <trkpt lat="44.39946" lon="4.31993">
        <ele>318.322</ele>
        <time>2015-07-28T22:12:26Z</time>
      </trkpt>
      <trkpt lat="44.39956" lon="4.32037">
        <ele>316.956</ele>
        <time>2015-07-28T22:12:46Z</time>
      </trkpt>
      <trkpt lat="44.39936" lon="4.32119">
        <ele>314.923</ele>
        <time>2015-07-28T22:13:06Z</time>
      </trkpt>
      <trkpt lat="44.39951" lon="4.32146">
        <ele>314.051</ele>
        <time>2015-07-28T22:13:26Z</time>
      </trkpt>
      <trkpt lat="44.39992" lon="4.32158">
        <ele>314.613</ele>
        <time>2015-07-28T22:13:46Z</time>
      </trkpt>
      <trkpt lat="44.40024" lon="4.32192">
        <ele>314.218</ele>
        <time>2015-07-28T22:14:06Z</time>
      </trkpt>
      <trkpt lat="44.40039" lon="4.3225">
        <ele>311.861</ele>
        <time>2015-07-28T22:14:26Z</time>
      </trkpt>
      <trkpt lat="44.40066" lon="4.32271">
        <ele>308.936</ele>
        <time>2015-07-28T22:14:46Z</time>
      </trkpt>
      <trkpt lat="44.40127" lon="4.32275">
        <ele>306.194</ele>
        <time>2015-07-28T22:15:06Z</time>
      </trkpt>
      <trkpt lat="44.40136" lon="4.32301">
        <ele>306.857</ele>
        <time>2015-07-28T22:15:26Z</time>
      </trkpt>
      <trkpt lat="44.40164" lon="4.32335">
        <ele>310.222</ele>
        <time>2015-07-28T22:15:46Z</time>
      </trkpt>
      <trkpt lat="44.40173" lon="4.32368">
        <ele>315.708</ele>
        <time>2015-07-28T22:16:06Z</time>
      </trkpt>
      <trkpt lat="44.40158" lon="4.32432">
        <ele>321.395</ele>
        <time>2015-07-28T22:16:26Z</time>
      </trkpt>
      <trkpt lat="44.40168" lon="4.32494">
        <ele>323.889</ele>
        <time>2015-07-28T22:16:46Z</time>
      </trkpt>
      <trkpt lat="44.40204" lon="4.32625">
        <ele>327.086</ele>
        <time>2015-07-28T22:17:06Z</time>
      </trkpt>
      <trkpt lat="44.40192" lon="4.32641">
        <ele>328.054</ele>
        <time>2015-07-28T22:17:26Z</time>
      </trkpt>
      <trkpt lat="44.40175" lon="4.32713">
        <ele>330.296</ele>
        <time>2015-07-28T22:17:46Z</time>
      </trkpt>
      <trkpt lat="44.4009" lon="4.32868">
        <ele>341.111</ele>
        <time>2015-07-28T22:18:06Z</time>
      </trkpt>
      <trkpt lat="44.40051" lon="4.32953">
        <ele>346.384</ele>
        <time>2015-07-28T22:18:26Z</time>
      </trkpt>
      <trkpt lat="44.40016" lon="4.33016">
        <ele>353.159</ele>
        <time>2015-07-28T22:18:46Z</time>
      </trkpt>
      <trkpt lat="44.40015" lon="4.33051">
        <ele>349.943</ele>
        <time>2015-07-28T22:19:06Z</time>
      </trkpt>
      <trkpt lat="44.39964" lon="4.33098">
        <ele>347.864</ele>
        <time>2015-07-28T22:19:26Z</time>
      </trkpt>
      <trkpt lat="44.39923" lon="4.33111">
        <ele>347.71</ele>
        <time>2015-07-28T22:19:46Z</time>
      </trkpt>
      <trkpt lat="44.39828" lon="4.33088">
        <ele>347.908</ele>
        <time>2015-07-28T22:20:06Z</time>
      </trkpt>
      <trkpt lat="44.3974" lon="4.33087">
        <ele>353.64</ele>
        <time>2015-07-28T22:20:26Z</time>
      </trkpt>
      <trkpt lat="44.39681" lon="4.33117">
        <ele>353.224</ele>
        <time>2015-07-28T22:20:46Z</time>
      </trkpt>
      <trkpt lat="44.39638" lon="4.33154">
        <ele>347.721</ele>
        <time>2015-07-28T22:21:06Z</time>
      </trkpt>
      <trkpt lat="44.39609" lon="4.33158">
        <ele>345.719</ele>
        <time>2015-07-28T22:21:26Z</time>
      </trkpt>
      <trkpt lat="44.39582" lon="4.33149">
        <ele>348.641</ele>
        <time>2015-07-28T22:21:46Z</time>
      </trkpt>
      <trkpt lat="44.39582" lon="4.33166">
        <ele>347.446</ele>
        <time>2015-07-28T22:22:06Z</time>
      </trkpt>
      <trkpt lat="44.39648" lon="4.33206">
        <ele>347.039</ele>
        <time>2015-07-28T22:22:26Z</time>
      </trkpt>
      <trkpt lat="44.39739" lon="4.33178">
        <ele>341.314</ele>
        <time>2015-07-28T22:22:46Z</time>
      </trkpt>
      <trkpt lat="44.39776" lon="4.33197">
        <ele>338.568</ele>
        <time>2015-07-28T22:23:06Z</time>
      </trkpt>
      <trkpt lat="44.39861" lon="4.33267">
        <ele>335.042</ele>
        <time>2015-07-28T22:23:26Z</time>
      </trkpt>
      <trkpt lat="44.39909" lon="4.33288">
        <ele>329.826</ele>
        <time>2015-07-28T22:23:46Z</time>
      </trkpt>
      <trkpt lat="44.39938" lon="4.33338">
        <ele>331.808</ele>
        <time>2015-07-28T22:24:06Z</time>
      </trkpt>
      <trkpt lat="44.39936" lon="4.33377">
        <ele>337.042</ele>
        <time>2015-07-28T22:24:26Z</time>
      </trkpt>
      <trkpt lat="44.39949" lon="4.33385">
        <ele>337.176</ele>
        <time>2015-07-28T22:24:46Z</time>
      </trkpt>
      <trkpt lat="44.39982" lon="4.3335">
        <ele>334.553</ele>
        <time>2015-07-28T22:25:06Z</time>
      </trkpt>
      <trkpt lat="44.40017" lon="4.33301">
        <ele>328.391</ele>
        <time>2015-07-28T22:25:26Z</time>
      </trkpt>
      <trkpt lat="44.40044" lon="4.33297">
        <ele>328.563</ele>
        <time>2015-07-28T22:25:46Z</time>
      </trkpt>
      <trkpt lat="44.4008" lon="4.33327">
        <ele>336.048</ele>
        <time>2015-07-28T22:26:06Z</time>
      </trkpt>
      <trkpt lat="44.40092" lon="4.33275">
        <ele>329.831</ele>
        <time>2015-07-28T22:26:26Z</time>
      </trkpt>
      <trkpt lat="44.40119" lon="4.33253">
        <ele>331.616</ele>
        <time>2015-07-28T22:26:46Z</time>
      </trkpt>
      <trkpt lat="44.4017" lon="4.33238">
        <ele>335.429</ele>
        <time>2015-07-28T22:27:06Z</time>
      </trkpt>
      <trkpt lat="44.40217" lon="4.33219">
        <ele>337</ele>
        <time>2015-07-28T22:27:26Z</time>
      </trkpt>
      <trkpt lat="44.40236" lon="4.3323">
        <ele>337.22</ele>
        <time>2015-07-28T22:27:46Z</time>
      </trkpt>
      <trkpt lat="44.40231" lon="4.33315">
        <ele>341.708</ele>
        <time>2015-07-28T22:28:06Z</time>
      </trkpt>
      <trkpt lat="44.40255" lon="4.33375">
        <ele>332.648</ele>
        <time>2015-07-28T22:28:26Z</time>
      </trkpt>
      <trkpt lat="44.40224" lon="4.3343">
        <ele>336.322</ele>
        <time>2015-07-28T22:28:46Z</time>
      </trkpt>
      <trkpt lat="44.40215" lon="4.33485">
        <ele>335.499</ele>
        <time>2015-07-28T22:29:06Z</time>
      </trkpt>
      <trkpt lat="44.40244" lon="4.33545">
        <ele>323.377</ele>
        <time>2015-07-28T22:29:26Z</time>
      </trkpt>
      <trkpt lat="44.40228" lon="4.33604">
        <ele>331.839</ele>
        <time>2015-07-28T22:29:46Z</time>
      </trkpt>
      <trkpt lat="44.40232" lon="4.33626">
        <ele>331.654</ele>
        <time>2015-07-28T22:30:06Z</time>
      </trkpt>
      <trkpt lat="44.40291" lon="4.33656">
        <ele>316.297</ele>
        <time>2015-07-28T22:30:26Z</time>
      </trkpt>
      <trkpt lat="44.40303" lon="4.33682">
        <ele>319.272</ele>
        <time>2015-07-28T22:30:46Z</time>
      </trkpt>
      <trkpt lat="44.40306" lon="4.33716">
        <ele>324.733</ele>
        <time>2015-07-28T22:31:06Z</time>
      </trkpt>
      <trkpt lat="44.40387" lon="4.33726">
        <ele>317.523</ele>
        <time>2015-07-28T22:31:26Z</time>
      </trkpt>
      <trkpt lat="44.40404" lon="4.33812">
        <ele>323.215</ele>
        <time>2015-07-28T22:31:46Z</time>
      </trkpt>
      <trkpt lat="44.404" lon="4.33928">
        <ele>328.608</ele>
        <time>2015-07-28T22:32:06Z</time>
      </trkpt>
      <trkpt lat="44.40432" lon="4.33929">
        <ele>321.959</ele>
        <time>2015-07-28T22:32:26Z</time>
      </trkpt>
      <trkpt lat="44.40483" lon="4.33945">
        <ele>321.723</ele>
        <time>2015-07-28T22:32:46Z</time>
      </trkpt>
      <trkpt lat="44.40558" lon="4.33941">
        <ele>321.12</ele>
        <time>2015-07-28T22:33:06Z</time>
      </trkpt>
      <trkpt lat="44.40532" lon="4.34038">
        <ele>324.568</ele>
        <time>2015-07-28T22:33:26Z</time>
      </trkpt>
      <trkpt lat="44.40542" lon="4.34071">
        <ele>325.04</ele>
        <time>2015-07-28T22:33:46Z</time>
      </trkpt>
      <trkpt lat="44.40577" lon="4.34096">
        <ele>318.025</ele>
        <time>2015-07-28T22:34:06Z</time>
      </trkpt>
      <trkpt lat="44.40633" lon="4.34112">
        <ele>305.698</ele>
        <time>2015-07-28T22:34:26Z</time>
      </trkpt>
      <trkpt lat="44.40694" lon="4.34103">
        <ele>293.443</ele>
        <time>2015-07-28T22:34:46Z</time>
      </trkpt>
      <trkpt lat="44.40731" lon="4.34101">
        <ele>291.183</ele>
        <time>2015-07-28T22:35:06Z</time>
      </trkpt>
      <trkpt lat="44.40751" lon="4.34108">
        <ele>290.825</ele>
        <time>2015-07-28T22:35:26Z</time>
      </trkpt>
      <trkpt lat="44.40695" lon="4.34126">
        <ele>290.117</ele>
        <time>2015-07-28T22:35:46Z</time>
      </trkpt>
      <trkpt lat="44.40628" lon="4.34195">
        <ele>289.108</ele>
        <time>2015-07-28T22:36:06Z</time>
      </trkpt>
      <trkpt lat="44.40545" lon="4.34205">
        <ele>303.084</ele>
        <time>2015-07-28T22:36:26Z</time>
      </trkpt>
      <trkpt lat="44.40502" lon="4.34271">
        <ele>304.078</ele>
        <time>2015-07-28T22:36:46Z</time>
      </trkpt>
      <trkpt lat="44.40491" lon="4.34309">
        <ele>302.795</ele>
        <time>2015-07-28T22:37:06Z</time>
      </trkpt>
      <trkpt lat="44.40479" lon="4.34386">
        <ele>300.173</ele>
        <time>2015-07-28T22:37:26Z</time>
      </trkpt>
      <trkpt lat="44.40468" lon="4.34396">
        <ele>300.395</ele>
        <time>2015-07-28T22:37:46Z</time>
      </trkpt>
      <trkpt lat="44.40429" lon="4.3434">
        <ele>299.26</ele>
        <time>2015-07-28T22:38:06Z</time>
      </trkpt>
      <trkpt lat="44.40376" lon="4.34287">
        <ele>298.073</ele>
        <time>2015-07-28T22:38:26Z</time>
      </trkpt>
      <trkpt lat="44.4037" lon="4.34266">
        <ele>303.128</ele>
        <time>2015-07-28T22:38:46Z</time>
      </trkpt>
      <trkpt lat="44.40358" lon="4.34253">
        <ele>306.125</ele>
        <time>2015-07-28T22:39:06Z</time>
      </trkpt>
      <trkpt lat="44.40345" lon="4.34264">
        <ele>303.626</ele>
        <time>2015-07-28T22:39:26Z</time>
      </trkpt>
      <trkpt lat="44.40341" lon="4.34299">
        <ele>291.808</ele>
        <time>2015-07-28T22:39:46Z</time>
      </trkpt>
      <trkpt lat="44.40276" lon="4.34414">
        <ele>280.208</ele>
        <time>2015-07-28T22:40:06Z</time>
      </trkpt>
      <trkpt lat="44.40237" lon="4.34521">
        <ele>268.388</ele>
        <time>2015-07-28T22:40:26Z</time>
      </trkpt>
      <trkpt lat="44.40209" lon="4.3468">
        <ele>243.182</ele>
        <time>2015-07-28T22:40:46Z</time>
      </trkpt>
      <trkpt lat="44.40189" lon="4.34707">
        <ele>245.599</ele>
        <time>2015-07-28T22:41:06Z</time>
      </trkpt>
      <trkpt lat="44.4018" lon="4.34739">
        <ele>243.297</ele>
        <time>2015-07-28T22:41:26Z</time>
      </trkpt>
      <trkpt lat="44.40145" lon="4.34795">
        <ele>238.099</ele>
        <time>2015-07-28T22:41:46Z</time>
      </trkpt>
      <trkpt lat="44.40022" lon="4.34853">
        <ele>219.824</ele>
        <time>2015-07-28T22:42:06Z</time>
      </trkpt>
      <trkpt lat="44.39998" lon="4.34849">
        <ele>218.877</ele>
        <time>2015-07-28T22:42:26Z</time>
      </trkpt>
      <trkpt lat="44.39982" lon="4.34838">
        <ele>219.312</ele>
        <time>2015-07-28T22:42:46Z</time>
      </trkpt>
      <trkpt lat="44.39959" lon="4.34842">
        <ele>215.138</ele>
        <time>2015-07-28T22:43:06Z</time>
      </trkpt>
      <trkpt lat="44.39907" lon="4.34823">
        <ele>208.67</ele>
        <time>2015-07-28T22:43:26Z</time>
      </trkpt>
      <trkpt lat="44.39888" lon="4.34808">
        <ele>207.317</ele>
        <time>2015-07-28T22:43:46Z</time>
      </trkpt>
      <trkpt lat="44.39844" lon="4.34793">
        <ele>206.208</ele>
        <time>2015-07-28T22:44:06Z</time>
      </trkpt>
      <trkpt lat="44.39778" lon="4.34937">
        <ele>197.519</ele>
        <time>2015-07-28T22:44:26Z</time>
      </trkpt>
      <trkpt lat="44.39776" lon="4.34978">
        <ele>193.523</ele>
        <time>2015-07-28T22:44:46Z</time>
      </trkpt>
      <trkpt lat="44.39784" lon="4.35074">
        <ele>184.34</ele>
        <time>2015-07-28T22:45:06Z</time>
      </trkpt>
      <trkpt lat="44.39795" lon="4.35114">
        <ele>182.448</ele>
        <time>2015-07-28T22:45:26Z</time>
      </trkpt>
      <trkpt lat="44.39772" lon="4.35123">
        <ele>179.83</ele>
        <time>2015-07-28T22:45:46Z</time>
      </trkpt>
      <trkpt lat="44.39763" lon="4.35145">
        <ele>178.955</ele>
        <time>2015-07-28T22:46:06Z</time>
      </trkpt>
      <trkpt lat="44.39816" lon="4.35192">
        <ele>182.538</ele>
        <time>2015-07-28T22:46:26Z</time>
      </trkpt>
      <trkpt lat="44.39847" lon="4.35244">
        <ele>174.683</ele>
        <time>2015-07-28T22:46:46Z</time>
      </trkpt>
      <trkpt lat="44.39817" lon="4.35278">
        <ele>174.087</ele>
        <time>2015-07-28T22:47:06Z</time>
      </trkpt>
      <trkpt lat="44.39801" lon="4.35362">
        <ele>173.742</ele>
        <time>2015-07-28T22:47:26Z</time>
      </trkpt>
      <trkpt lat="44.39753" lon="4.35394">
        <ele>169.326</ele>
        <time>2015-07-28T22:47:46Z</time>
      </trkpt>
      <trkpt lat="44.39753" lon="4.35443">
        <ele>170.108</ele>
        <time>2015-07-28T22:48:06Z</time>
      </trkpt>
      <trkpt lat="44.39747" lon="4.35502">
        <ele>169.194</ele>
        <time>2015-07-28T22:48:26Z</time>
      </trkpt>
      <trkpt lat="44.39766" lon="4.35536">
        <ele>168.498</ele>
        <time>2015-07-28T22:48:46Z</time>
      </trkpt>
      <trkpt lat="44.39772" lon="4.35584">
        <ele>166.355</ele>
        <time>2015-07-28T22:49:06Z</time>
      </trkpt>
      <trkpt lat="44.39792" lon="4.35627">
        <ele>166.323</ele>
        <time>2015-07-28T22:49:26Z</time>
      </trkpt>
      <trkpt lat="44.39824" lon="4.35784">
        <ele>168.925</ele>
        <time>2015-07-28T22:49:46Z</time>
      </trkpt>
      <trkpt lat="44.39818" lon="4.35869">
        <ele>167.08</ele>
        <time>2015-07-28T22:50:06Z</time>
      </trkpt>
      <trkpt lat="44.39825" lon="4.35952">
        <ele>169.023</ele>
        <time>2015-07-28T22:50:26Z</time>
      </trkpt>
      <trkpt lat="44.3978" lon="4.36038">
        <ele>163.328</ele>
        <time>2015-07-28T22:50:46Z</time>
      </trkpt>
      <trkpt lat="44.39793" lon="4.36163">
        <ele>157.941</ele>
        <time>2015-07-28T22:51:06Z</time>
      </trkpt>
      <trkpt lat="44.3978" lon="4.36238">
        <ele>152.281</ele>
        <time>2015-07-28T22:51:26Z</time>
      </trkpt>
      <trkpt lat="44.39786" lon="4.36296">
        <ele>148.409</ele>
        <time>2015-07-28T22:51:46Z</time>
      </trkpt>
      <trkpt lat="44.39815" lon="4.36376">
        <ele>145.508</ele>
        <time>2015-07-28T22:52:06Z</time>
      </trkpt>
      <trkpt lat="44.39831" lon="4.3645">
        <ele>140.62</ele>
        <time>2015-07-28T22:52:26Z</time>
      </trkpt>
      <trkpt lat="44.39884" lon="4.36614">
        <ele>134.794</ele>
        <time>2015-07-28T22:52:46Z</time>
      </trkpt>
      <trkpt lat="44.39898" lon="4.36694">
        <ele>126.811</ele>
        <time>2015-07-28T22:53:06Z</time>
      </trkpt>
      <trkpt lat="44.39896" lon="4.36788">
        <ele>121.749</ele>
        <time>2015-07-28T22:53:26Z</time>
      </trkpt>
      <trkpt lat="44.39885" lon="4.36858">
        <ele>118.251</ele>
        <time>2015-07-28T22:53:46Z</time>
      </trkpt>
      <trkpt lat="44.39817" lon="4.36949">
        <ele>94.636</ele>
        <time>2015-07-28T22:54:06Z</time>
      </trkpt>
      <trkpt lat="44.39779" lon="4.36962">
        <ele>99.259</ele>
        <time>2015-07-28T22:54:26Z</time>
      </trkpt>
      <trkpt lat="44.39772" lon="4.36995">
        <ele>106.254</ele>
        <time>2015-07-28T22:54:46Z</time>
      </trkpt>
      <trkpt lat="44.39828" lon="4.37068">
        <ele>103.014</ele>
        <time>2015-07-28T22:55:06Z</time>
      </trkpt>
      <trkpt lat="44.39836" lon="4.37308">
        <ele>116.254</ele>
        <time>2015-07-28T22:55:26Z</time>
      </trkpt>
      <trkpt lat="44.3982" lon="4.37423">
        <ele>112.409</ele>
        <time>2015-07-28T22:55:46Z</time>
      </trkpt>
      <trkpt lat="44.39801" lon="4.37501">
        <ele>109.108</ele>
        <time>2015-07-28T22:56:06Z</time>
      </trkpt>
      <trkpt lat="44.39823" lon="4.37568">
        <ele>98.667</ele>
        <time>2015-07-28T22:56:26Z</time>
      </trkpt>
      <trkpt lat="44.39819" lon="4.37738">
        <ele>91.541</ele>
        <time>2015-07-28T22:56:46Z</time>
      </trkpt>
      <trkpt lat="44.39807" lon="4.37785">
        <ele>90.758</ele>
        <time>2015-07-28T22:57:06Z</time>
      </trkpt>
      <trkpt lat="44.39518" lon="4.37885">
        <ele>100.046</ele>
        <time>2015-07-28T22:57:26Z</time>
      </trkpt>
      <trkpt lat="44.40243" lon="4.39167">
        <ele>111.6</ele>
      </trkpt>
      <trkpt lat="44.40716" lon="4.39509">
        <ele>120.9</ele>
      </trkpt>
    </trkseg>
  </trk>
</gpx>